sensor_id;sensor_type;location;lat;lon;timestamp;P1;durP1;ratioP1;P2;durP2;ratioP2
32297;SDS011;18782;48.984;8.548;2024-03-22T00:00:16;10.10;;;6.18;;
32297;SDS011;18782;48.984;8.548;2024-03-22T00:02:43;10.75;;;6.20;;
32297;SDS011;18782;48.984;8.548;2024-03-22T00:05:10;10.35;;;6.32;;
32297;SDS011;18782;48.984;8.548;2024-03-22T00:07:37;8.77;;;5.95;;
32297;SDS011;18782;48.984;8.548;2024-03-22T00:10:04;8.38;;;6.30;;
32297;SDS011;18782;48.984;8.548;2024-03-22T00:12:31;8.82;;;6.22;;
32297;SDS011;18782;48.984;8.548;2024-03-22T00:14:57;9.05;;;6.25;;
32297;SDS011;18782;48.984;8.548;2024-03-22T00:17:23;9.15;;;5.93;;
32297;SDS011;18782;48.984;8.548;2024-03-22T00:19:51;11.05;;;6.50;;
32297;SDS011;18782;48.984;8.548;2024-03-22T00:22:17;9.80;;;5.57;;
32297;SDS011;18782;48.984;8.548;2024-03-22T00:24:44;11.80;;;6.65;;
32297;SDS011;18782;48.984;8.548;2024-03-22T00:27:10;11.23;;;6.70;;
32297;SDS011;18782;48.984;8.548;2024-03-22T00:29:37;8.95;;;6.35;;
32297;SDS011;18782;48.984;8.548;2024-03-22T00:32:04;10.43;;;6.43;;
32297;SDS011;18782;48.984;8.548;2024-03-22T00:34:32;8.55;;;5.85;;
32297;SDS011;18782;48.984;8.548;2024-03-22T00:36:59;8.10;;;6.28;;
32297;SDS011;18782;48.984;8.548;2024-03-22T00:39:26;12.75;;;6.47;;
32297;SDS011;18782;48.984;8.548;2024-03-22T00:41:52;8.07;;;6.32;;
32297;SDS011;18782;48.984;8.548;2024-03-22T00:44:19;8.00;;;6.00;;
32297;SDS011;18782;48.984;8.548;2024-03-22T00:46:45;10.70;;;6.70;;
32297;SDS011;18782;48.984;8.548;2024-03-22T00:49:11;8.27;;;6.38;;
32297;SDS011;18782;48.984;8.548;2024-03-22T00:51:38;9.55;;;5.82;;
32297;SDS011;18782;48.984;8.548;2024-03-22T00:54:06;8.40;;;5.63;;
32297;SDS011;18782;48.984;8.548;2024-03-22T00:56:32;11.30;;;6.70;;
32297;SDS011;18782;48.984;8.548;2024-03-22T00:58:58;13.50;;;6.97;;
32297;SDS011;18782;48.984;8.548;2024-03-22T01:01:24;14.82;;;7.63;;
32297;SDS011;18782;48.984;8.548;2024-03-22T01:03:51;12.02;;;6.47;;
32297;SDS011;18782;48.984;8.548;2024-03-22T01:06:17;11.90;;;5.82;;
32297;SDS011;18782;48.984;8.548;2024-03-22T01:08:48;8.82;;;5.55;;
32297;SDS011;18782;48.984;8.548;2024-03-22T01:11:16;9.45;;;6.50;;
32297;SDS011;18782;48.984;8.548;2024-03-22T01:13:43;10.30;;;6.40;;
32297;SDS011;18782;48.984;8.548;2024-03-22T01:16:09;9.48;;;5.97;;
32297;SDS011;18782;48.984;8.548;2024-03-22T01:18:35;9.68;;;5.72;;
32297;SDS011;18782;48.984;8.548;2024-03-22T01:21:02;9.63;;;5.63;;
32297;SDS011;18782;48.984;8.548;2024-03-22T01:23:30;10.85;;;6.00;;
32297;SDS011;18782;48.984;8.548;2024-03-22T01:25:56;8.52;;;5.55;;
32297;SDS011;18782;48.984;8.548;2024-03-22T01:28:25;8.65;;;6.32;;
32297;SDS011;18782;48.984;8.548;2024-03-22T01:30:51;7.68;;;5.57;;
32297;SDS011;18782;48.984;8.548;2024-03-22T01:33:18;6.53;;;4.97;;
32297;SDS011;18782;48.984;8.548;2024-03-22T01:35:43;7.78;;;5.68;;
32297;SDS011;18782;48.984;8.548;2024-03-22T01:38:10;8.07;;;5.50;;
32297;SDS011;18782;48.984;8.548;2024-03-22T01:40:36;7.63;;;5.88;;
32297;SDS011;18782;48.984;8.548;2024-03-22T01:43:03;7.20;;;5.07;;
32297;SDS011;18782;48.984;8.548;2024-03-22T01:45:33;7.53;;;5.40;;
32297;SDS011;18782;48.984;8.548;2024-03-22T01:48:00;7.38;;;5.13;;
32297;SDS011;18782;48.984;8.548;2024-03-22T01:50:27;7.45;;;5.18;;
32297;SDS011;18782;48.984;8.548;2024-03-22T01:52:54;8.05;;;5.35;;
32297;SDS011;18782;48.984;8.548;2024-03-22T01:55:20;7.57;;;5.35;;
32297;SDS011;18782;48.984;8.548;2024-03-22T01:57:47;8.93;;;5.53;;
32297;SDS011;18782;48.984;8.548;2024-03-22T02:00:15;9.18;;;5.50;;
32297;SDS011;18782;48.984;8.548;2024-03-22T02:02:44;7.00;;;5.00;;
32297;SDS011;18782;48.984;8.548;2024-03-22T02:05:13;7.50;;;5.05;;
32297;SDS011;18782;48.984;8.548;2024-03-22T02:07:40;8.05;;;4.85;;
32297;SDS011;18782;48.984;8.548;2024-03-22T02:10:06;6.82;;;5.07;;
32297;SDS011;18782;48.984;8.548;2024-03-22T02:12:36;7.30;;;4.68;;
32297;SDS011;18782;48.984;8.548;2024-03-22T02:15:02;6.47;;;4.68;;
32297;SDS011;18782;48.984;8.548;2024-03-22T02:17:29;8.85;;;5.43;;
32297;SDS011;18782;48.984;8.548;2024-03-22T02:19:56;7.28;;;4.97;;
32297;SDS011;18782;48.984;8.548;2024-03-22T02:22:23;6.90;;;4.82;;
32297;SDS011;18782;48.984;8.548;2024-03-22T02:24:50;6.82;;;5.25;;
32297;SDS011;18782;48.984;8.548;2024-03-22T02:27:17;7.53;;;5.00;;
32297;SDS011;18782;48.984;8.548;2024-03-22T02:29:43;6.40;;;4.60;;
32297;SDS011;18782;48.984;8.548;2024-03-22T02:32:10;6.72;;;4.63;;
32297;SDS011;18782;48.984;8.548;2024-03-22T02:34:35;6.45;;;4.63;;
32297;SDS011;18782;48.984;8.548;2024-03-22T02:37:02;6.70;;;5.00;;
32297;SDS011;18782;48.984;8.548;2024-03-22T02:39:28;7.43;;;4.90;;
32297;SDS011;18782;48.984;8.548;2024-03-22T02:41:56;7.88;;;4.97;;
32297;SDS011;18782;48.984;8.548;2024-03-22T02:44:22;5.65;;;4.90;;
32297;SDS011;18782;48.984;8.548;2024-03-22T02:46:49;7.30;;;4.63;;
32297;SDS011;18782;48.984;8.548;2024-03-22T02:49:15;7.05;;;5.03;;
32297;SDS011;18782;48.984;8.548;2024-03-22T02:51:42;6.75;;;5.00;;
32297;SDS011;18782;48.984;8.548;2024-03-22T02:54:07;6.63;;;4.90;;
32297;SDS011;18782;48.984;8.548;2024-03-22T02:56:34;6.72;;;4.47;;
32297;SDS011;18782;48.984;8.548;2024-03-22T02:59:01;7.22;;;5.00;;
32297;SDS011;18782;48.984;8.548;2024-03-22T03:01:28;9.00;;;5.40;;
32297;SDS011;18782;48.984;8.548;2024-03-22T03:03:54;7.15;;;5.03;;
32297;SDS011;18782;48.984;8.548;2024-03-22T03:06:20;6.95;;;5.18;;
32297;SDS011;18782;48.984;8.548;2024-03-22T03:08:46;9.35;;;4.45;;
32297;SDS011;18782;48.984;8.548;2024-03-22T03:11:13;6.95;;;4.75;;
32297;SDS011;18782;48.984;8.548;2024-03-22T03:13:39;7.57;;;4.82;;
32297;SDS011;18782;48.984;8.548;2024-03-22T03:16:08;9.63;;;4.95;;
32297;SDS011;18782;48.984;8.548;2024-03-22T03:18:33;7.25;;;4.82;;
32297;SDS011;18782;48.984;8.548;2024-03-22T03:21:00;10.13;;;5.97;;
32297;SDS011;18782;48.984;8.548;2024-03-22T03:23:26;10.45;;;6.38;;
32297;SDS011;18782;48.984;8.548;2024-03-22T03:25:53;10.35;;;6.07;;
32297;SDS011;18782;48.984;8.548;2024-03-22T03:28:18;6.55;;;5.28;;
32297;SDS011;18782;48.984;8.548;2024-03-22T03:30:45;9.45;;;5.75;;
32297;SDS011;18782;48.984;8.548;2024-03-22T03:33:12;9.93;;;6.28;;
32297;SDS011;18782;48.984;8.548;2024-03-22T03:35:39;9.82;;;5.88;;
32297;SDS011;18782;48.984;8.548;2024-03-22T03:38:05;8.45;;;5.15;;
32297;SDS011;18782;48.984;8.548;2024-03-22T03:40:32;7.93;;;4.95;;
32297;SDS011;18782;48.984;8.548;2024-03-22T03:42:58;7.78;;;5.15;;
32297;SDS011;18782;48.984;8.548;2024-03-22T03:45:24;7.07;;;4.82;;
32297;SDS011;18782;48.984;8.548;2024-03-22T03:47:50;11.70;;;5.28;;
32297;SDS011;18782;48.984;8.548;2024-03-22T03:50:18;7.18;;;5.18;;
32297;SDS011;18782;48.984;8.548;2024-03-22T03:52:44;8.57;;;5.38;;
32297;SDS011;18782;48.984;8.548;2024-03-22T03:55:11;8.85;;;5.07;;
32297;SDS011;18782;48.984;8.548;2024-03-22T03:57:37;7.25;;;4.65;;
32297;SDS011;18782;48.984;8.548;2024-03-22T04:00:04;8.23;;;5.45;;
32297;SDS011;18782;48.984;8.548;2024-03-22T04:02:31;8.18;;;5.30;;
32297;SDS011;18782;48.984;8.548;2024-03-22T04:04:58;26.17;;;10.45;;
32297;SDS011;18782;48.984;8.548;2024-03-22T04:07:25;10.90;;;6.18;;
32297;SDS011;18782;48.984;8.548;2024-03-22T04:09:52;8.95;;;5.55;;
32297;SDS011;18782;48.984;8.548;2024-03-22T04:12:17;10.00;;;5.22;;
32297;SDS011;18782;48.984;8.548;2024-03-22T04:14:44;7.32;;;5.35;;
32297;SDS011;18782;48.984;8.548;2024-03-22T04:17:10;7.13;;;5.68;;
32297;SDS011;18782;48.984;8.548;2024-03-22T04:19:37;8.25;;;5.28;;
32297;SDS011;18782;48.984;8.548;2024-03-22T04:22:03;5.78;;;4.47;;
32297;SDS011;18782;48.984;8.548;2024-03-22T04:24:31;7.78;;;4.88;;
32297;SDS011;18782;48.984;8.548;2024-03-22T04:26:57;6.85;;;4.80;;
32297;SDS011;18782;48.984;8.548;2024-03-22T04:29:24;6.90;;;4.90;;
32297;SDS011;18782;48.984;8.548;2024-03-22T04:31:49;10.55;;;5.18;;
32297;SDS011;18782;48.984;8.548;2024-03-22T04:34:16;5.88;;;4.30;;
32297;SDS011;18782;48.984;8.548;2024-03-22T04:36:42;6.35;;;4.60;;
32297;SDS011;18782;48.984;8.548;2024-03-22T04:39:09;6.35;;;4.70;;
32297;SDS011;18782;48.984;8.548;2024-03-22T04:41:38;7.18;;;4.68;;
32297;SDS011;18782;48.984;8.548;2024-03-22T04:44:05;6.60;;;4.63;;
32297;SDS011;18782;48.984;8.548;2024-03-22T04:46:32;8.18;;;4.75;;
32297;SDS011;18782;48.984;8.548;2024-03-22T04:48:59;7.00;;;4.78;;
32297;SDS011;18782;48.984;8.548;2024-03-22T04:51:24;7.85;;;5.15;;
32297;SDS011;18782;48.984;8.548;2024-03-22T04:53:51;7.82;;;4.95;;
32297;SDS011;18782;48.984;8.548;2024-03-22T04:56:17;6.60;;;4.80;;
32297;SDS011;18782;48.984;8.548;2024-03-22T04:58:45;7.10;;;4.78;;
32297;SDS011;18782;48.984;8.548;2024-03-22T05:01:11;7.88;;;5.05;;
32297;SDS011;18782;48.984;8.548;2024-03-22T05:03:38;8.40;;;4.97;;
32297;SDS011;18782;48.984;8.548;2024-03-22T05:06:06;7.85;;;4.60;;
32297;SDS011;18782;48.984;8.548;2024-03-22T05:08:33;7.95;;;4.70;;
32297;SDS011;18782;48.984;8.548;2024-03-22T05:10:58;6.72;;;4.45;;
32297;SDS011;18782;48.984;8.548;2024-03-22T05:13:25;6.18;;;4.53;;
32297;SDS011;18782;48.984;8.548;2024-03-22T05:15:52;7.18;;;4.97;;
32297;SDS011;18782;48.984;8.548;2024-03-22T05:18:19;6.85;;;5.00;;
32297;SDS011;18782;48.984;8.548;2024-03-22T05:20:45;7.47;;;4.55;;
32297;SDS011;18782;48.984;8.548;2024-03-22T05:23:11;9.23;;;4.85;;
32297;SDS011;18782;48.984;8.548;2024-03-22T05:25:37;7.68;;;5.45;;
32297;SDS011;18782;48.984;8.548;2024-03-22T05:28:06;8.35;;;5.15;;
32297;SDS011;18782;48.984;8.548;2024-03-22T05:30:33;7.22;;;5.47;;
32297;SDS011;18782;48.984;8.548;2024-03-22T05:33:01;10.63;;;6.43;;
32297;SDS011;18782;48.984;8.548;2024-03-22T05:35:27;14.90;;;8.57;;
32297;SDS011;18782;48.984;8.548;2024-03-22T05:37:53;10.77;;;6.18;;
32297;SDS011;18782;48.984;8.548;2024-03-22T05:40:19;6.85;;;5.25;;
32297;SDS011;18782;48.984;8.548;2024-03-22T05:42:46;9.35;;;5.43;;
32297;SDS011;18782;48.984;8.548;2024-03-22T05:45:12;7.68;;;5.05;;
32297;SDS011;18782;48.984;8.548;2024-03-22T05:47:38;8.40;;;5.65;;
32297;SDS011;18782;48.984;8.548;2024-03-22T05:50:06;8.70;;;5.60;;
32297;SDS011;18782;48.984;8.548;2024-03-22T05:52:34;8.05;;;5.50;;
32297;SDS011;18782;48.984;8.548;2024-03-22T05:55:00;7.55;;;5.13;;
32297;SDS011;18782;48.984;8.548;2024-03-22T05:57:27;9.02;;;5.38;;
32297;SDS011;18782;48.984;8.548;2024-03-22T05:59:53;7.70;;;5.65;;
32297;SDS011;18782;48.984;8.548;2024-03-22T06:02:20;8.60;;;5.57;;
32297;SDS011;18782;48.984;8.548;2024-03-22T06:04:46;9.90;;;6.10;;
32297;SDS011;18782;48.984;8.548;2024-03-22T06:07:14;9.73;;;6.45;;
32297;SDS011;18782;48.984;8.548;2024-03-22T06:09:41;10.98;;;6.13;;
32297;SDS011;18782;48.984;8.548;2024-03-22T06:12:11;9.25;;;6.00;;
32297;SDS011;18782;48.984;8.548;2024-03-22T06:14:37;12.85;;;7.00;;
32297;SDS011;18782;48.984;8.548;2024-03-22T06:17:04;12.27;;;7.32;;
32297;SDS011;18782;48.984;8.548;2024-03-22T06:19:30;11.05;;;7.68;;
32297;SDS011;18782;48.984;8.548;2024-03-22T06:21:57;11.68;;;6.70;;
32297;SDS011;18782;48.984;8.548;2024-03-22T06:24:25;11.98;;;7.60;;
32297;SDS011;18782;48.984;8.548;2024-03-22T06:26:51;14.40;;;7.32;;
32297;SDS011;18782;48.984;8.548;2024-03-22T06:29:17;10.63;;;6.90;;
32297;SDS011;18782;48.984;8.548;2024-03-22T06:31:44;10.93;;;7.10;;
32297;SDS011;18782;48.984;8.548;2024-03-22T06:34:10;10.73;;;6.65;;
32297;SDS011;18782;48.984;8.548;2024-03-22T06:36:36;11.18;;;6.47;;
32297;SDS011;18782;48.984;8.548;2024-03-22T06:39:02;10.32;;;6.78;;
32297;SDS011;18782;48.984;8.548;2024-03-22T06:41:33;10.90;;;6.57;;
32297;SDS011;18782;48.984;8.548;2024-03-22T06:44:00;10.65;;;5.93;;
32297;SDS011;18782;48.984;8.548;2024-03-22T06:46:26;7.75;;;5.40;;
32297;SDS011;18782;48.984;8.548;2024-03-22T06:48:53;9.30;;;5.70;;
32297;SDS011;18782;48.984;8.548;2024-03-22T06:51:20;11.52;;;5.82;;
32297;SDS011;18782;48.984;8.548;2024-03-22T06:53:45;8.57;;;5.65;;
32297;SDS011;18782;48.984;8.548;2024-03-22T06:56:13;7.43;;;5.03;;
32297;SDS011;18782;48.984;8.548;2024-03-22T06:58:43;9.23;;;5.55;;
32297;SDS011;18782;48.984;8.548;2024-03-22T07:01:10;7.82;;;4.93;;
32297;SDS011;18782;48.984;8.548;2024-03-22T07:03:37;8.65;;;4.90;;
32297;SDS011;18782;48.984;8.548;2024-03-22T07:06:03;8.13;;;4.82;;
32297;SDS011;18782;48.984;8.548;2024-03-22T07:08:32;8.02;;;4.88;;
32297;SDS011;18782;48.984;8.548;2024-03-22T07:10:59;8.07;;;5.28;;
32297;SDS011;18782;48.984;8.548;2024-03-22T07:13:25;7.80;;;4.18;;
32297;SDS011;18782;48.984;8.548;2024-03-22T07:15:53;8.32;;;4.63;;
32297;SDS011;18782;48.984;8.548;2024-03-22T07:18:19;7.25;;;5.32;;
32297;SDS011;18782;48.984;8.548;2024-03-22T07:20:46;10.35;;;4.82;;
32297;SDS011;18782;48.984;8.548;2024-03-22T07:23:13;8.60;;;4.30;;
32297;SDS011;18782;48.984;8.548;2024-03-22T07:25:40;5.38;;;4.00;;
32297;SDS011;18782;48.984;8.548;2024-03-22T07:28:08;5.90;;;3.53;;
32297;SDS011;18782;48.984;8.548;2024-03-22T07:30:34;5.28;;;3.72;;
32297;SDS011;18782;48.984;8.548;2024-03-22T07:33:03;8.07;;;3.78;;
32297;SDS011;18782;48.984;8.548;2024-03-22T07:35:30;5.68;;;3.20;;
32297;SDS011;18782;48.984;8.548;2024-03-22T07:37:56;5.70;;;3.47;;
32297;SDS011;18782;48.984;8.548;2024-03-22T07:40:23;5.10;;;3.35;;
32297;SDS011;18782;48.984;8.548;2024-03-22T07:42:49;5.57;;;3.33;;
32297;SDS011;18782;48.984;8.548;2024-03-22T07:45:16;9.55;;;4.20;;
32297;SDS011;18782;48.984;8.548;2024-03-22T07:47:41;5.90;;;3.80;;
32297;SDS011;18782;48.984;8.548;2024-03-22T07:50:10;4.43;;;3.33;;
32297;SDS011;18782;48.984;8.548;2024-03-22T07:52:36;4.50;;;2.88;;
32297;SDS011;18782;48.984;8.548;2024-03-22T07:55:03;3.53;;;2.35;;
32297;SDS011;18782;48.984;8.548;2024-03-22T07:57:29;4.18;;;2.80;;
32297;SDS011;18782;48.984;8.548;2024-03-22T07:59:56;3.45;;;2.50;;
32297;SDS011;18782;48.984;8.548;2024-03-22T08:02:22;4.32;;;3.08;;
32297;SDS011;18782;48.984;8.548;2024-03-22T08:04:49;3.17;;;2.17;;
32297;SDS011;18782;48.984;8.548;2024-03-22T08:07:16;4.30;;;2.33;;
32297;SDS011;18782;48.984;8.548;2024-03-22T08:09:43;4.65;;;2.38;;
32297;SDS011;18782;48.984;8.548;2024-03-22T08:12:09;6.90;;;3.15;;
32297;SDS011;18782;48.984;8.548;2024-03-22T08:14:35;4.85;;;3.20;;
32297;SDS011;18782;48.984;8.548;2024-03-22T08:17:01;4.75;;;3.22;;
32297;SDS011;18782;48.984;8.548;2024-03-22T08:19:28;6.03;;;3.25;;
32297;SDS011;18782;48.984;8.548;2024-03-22T08:21:54;4.25;;;3.28;;
32297;SDS011;18782;48.984;8.548;2024-03-22T08:24:22;4.90;;;3.00;;
32297;SDS011;18782;48.984;8.548;2024-03-22T08:26:48;8.75;;;2.95;;
32297;SDS011;18782;48.984;8.548;2024-03-22T08:29:15;7.53;;;4.93;;
32297;SDS011;18782;48.984;8.548;2024-03-22T08:31:41;9.18;;;6.15;;
32297;SDS011;18782;48.984;8.548;2024-03-22T08:34:08;9.48;;;6.18;;
32297;SDS011;18782;48.984;8.548;2024-03-22T08:36:34;9.32;;;5.57;;
32297;SDS011;18782;48.984;8.548;2024-03-22T08:39:01;10.35;;;5.32;;
32297;SDS011;18782;48.984;8.548;2024-03-22T08:41:28;9.40;;;5.20;;
32297;SDS011;18782;48.984;8.548;2024-03-22T08:43:55;6.45;;;4.80;;
32297;SDS011;18782;48.984;8.548;2024-03-22T08:46:22;6.57;;;4.40;;
32297;SDS011;18782;48.984;8.548;2024-03-22T08:48:52;6.47;;;4.35;;
32297;SDS011;18782;48.984;8.548;2024-03-22T08:51:17;8.10;;;4.03;;
32297;SDS011;18782;48.984;8.548;2024-03-22T08:53:44;6.38;;;4.70;;
32297;SDS011;18782;48.984;8.548;2024-03-22T08:56:10;5.53;;;4.15;;
32297;SDS011;18782;48.984;8.548;2024-03-22T08:58:38;6.40;;;4.22;;
32297;SDS011;18782;48.984;8.548;2024-03-22T09:01:05;4.43;;;3.45;;
32297;SDS011;18782;48.984;8.548;2024-03-22T09:03:35;7.35;;;3.78;;
32297;SDS011;18782;48.984;8.548;2024-03-22T09:06:01;6.55;;;3.40;;
32297;SDS011;18782;48.984;8.548;2024-03-22T09:08:28;6.20;;;3.35;;
32297;SDS011;18782;48.984;8.548;2024-03-22T09:10:54;5.07;;;3.30;;
32297;SDS011;18782;48.984;8.548;2024-03-22T09:13:21;4.97;;;3.40;;
32297;SDS011;18782;48.984;8.548;2024-03-22T09:15:48;6.88;;;3.70;;
32297;SDS011;18782;48.984;8.548;2024-03-22T09:18:23;6.53;;;3.50;;
32297;SDS011;18782;48.984;8.548;2024-03-22T09:20:48;7.10;;;3.85;;
32297;SDS011;18782;48.984;8.548;2024-03-22T09:23:15;7.22;;;3.58;;
32297;SDS011;18782;48.984;8.548;2024-03-22T09:25:41;5.10;;;3.38;;
32297;SDS011;18782;48.984;8.548;2024-03-22T09:28:07;5.50;;;3.45;;
32297;SDS011;18782;48.984;8.548;2024-03-22T09:30:37;7.00;;;3.55;;
32297;SDS011;18782;48.984;8.548;2024-03-22T09:33:05;5.18;;;3.50;;
32297;SDS011;18782;48.984;8.548;2024-03-22T09:35:32;5.78;;;3.60;;
32297;SDS011;18782;48.984;8.548;2024-03-22T09:37:59;8.20;;;3.42;;
32297;SDS011;18782;48.984;8.548;2024-03-22T09:40:25;4.70;;;3.35;;
32297;SDS011;18782;48.984;8.548;2024-03-22T09:42:52;5.32;;;3.47;;
32297;SDS011;18782;48.984;8.548;2024-03-22T09:45:19;6.03;;;4.85;;
32297;SDS011;18782;48.984;8.548;2024-03-22T09:47:48;4.80;;;4.00;;
32297;SDS011;18782;48.984;8.548;2024-03-22T09:50:17;7.35;;;4.53;;
32297;SDS011;18782;48.984;8.548;2024-03-22T09:52:44;6.47;;;4.50;;
32297;SDS011;18782;48.984;8.548;2024-03-22T09:55:13;7.20;;;4.57;;
32297;SDS011;18782;48.984;8.548;2024-03-22T09:57:40;7.63;;;4.25;;
32297;SDS011;18782;48.984;8.548;2024-03-22T10:00:08;6.22;;;3.60;;
32297;SDS011;18782;48.984;8.548;2024-03-22T10:02:39;4.38;;;3.40;;
32297;SDS011;18782;48.984;8.548;2024-03-22T10:05:05;6.60;;;3.75;;
32297;SDS011;18782;48.984;8.548;2024-03-22T10:07:34;6.22;;;3.80;;
32297;SDS011;18782;48.984;8.548;2024-03-22T10:10:00;6.85;;;4.00;;
32297;SDS011;18782;48.984;8.548;2024-03-22T10:12:28;8.18;;;4.20;;
32297;SDS011;18782;48.984;8.548;2024-03-22T10:14:54;5.18;;;4.05;;
32297;SDS011;18782;48.984;8.548;2024-03-22T10:17:21;7.22;;;4.15;;
32297;SDS011;18782;48.984;8.548;2024-03-22T10:19:48;7.90;;;4.80;;
32297;SDS011;18782;48.984;8.548;2024-03-22T10:22:15;7.40;;;4.30;;
32297;SDS011;18782;48.984;8.548;2024-03-22T10:24:43;8.73;;;5.75;;
32297;SDS011;18782;48.984;8.548;2024-03-22T10:27:09;6.45;;;4.10;;
32297;SDS011;18782;48.984;8.548;2024-03-22T10:29:35;6.38;;;3.70;;
32297;SDS011;18782;48.984;8.548;2024-03-22T10:32:02;6.07;;;3.60;;
32297;SDS011;18782;48.984;8.548;2024-03-22T10:34:28;6.15;;;3.70;;
32297;SDS011;18782;48.984;8.548;2024-03-22T10:36:56;7.57;;;3.72;;
32297;SDS011;18782;48.984;8.548;2024-03-22T10:39:21;7.53;;;3.75;;
32297;SDS011;18782;48.984;8.548;2024-03-22T10:41:50;6.63;;;3.88;;
32297;SDS011;18782;48.984;8.548;2024-03-22T10:44:16;5.97;;;3.80;;
32297;SDS011;18782;48.984;8.548;2024-03-22T10:46:43;6.90;;;3.53;;
32297;SDS011;18782;48.984;8.548;2024-03-22T10:49:12;5.60;;;3.80;;
32297;SDS011;18782;48.984;8.548;2024-03-22T10:51:41;10.65;;;5.22;;
32297;SDS011;18782;48.984;8.548;2024-03-22T10:54:12;7.88;;;5.18;;
32297;SDS011;18782;48.984;8.548;2024-03-22T10:56:43;5.72;;;3.70;;
32297;SDS011;18782;48.984;8.548;2024-03-22T10:59:13;5.72;;;3.45;;
32297;SDS011;18782;48.984;8.548;2024-03-22T11:01:44;4.50;;;3.75;;
32297;SDS011;18782;48.984;8.548;2024-03-22T11:04:11;7.60;;;3.40;;
32297;SDS011;18782;48.984;8.548;2024-03-22T11:06:38;4.65;;;3.10;;
32297;SDS011;18782;48.984;8.548;2024-03-22T11:09:04;7.13;;;3.60;;
32297;SDS011;18782;48.984;8.548;2024-03-22T11:11:30;5.05;;;3.30;;
32297;SDS011;18782;48.984;8.548;2024-03-22T11:14:02;7.65;;;3.80;;
32297;SDS011;18782;48.984;8.548;2024-03-22T11:16:30;4.55;;;2.95;;
32297;SDS011;18782;48.984;8.548;2024-03-22T11:18:56;7.03;;;3.28;;
32297;SDS011;18782;48.984;8.548;2024-03-22T11:21:23;5.30;;;2.60;;
32297;SDS011;18782;48.984;8.548;2024-03-22T11:23:49;5.40;;;3.00;;
32297;SDS011;18782;48.984;8.548;2024-03-22T11:26:16;11.45;;;3.35;;
32297;SDS011;18782;48.984;8.548;2024-03-22T11:28:41;6.68;;;2.40;;
32297;SDS011;18782;48.984;8.548;2024-03-22T11:31:09;4.43;;;2.63;;
32297;SDS011;18782;48.984;8.548;2024-03-22T11:33:36;3.15;;;2.13;;
32297;SDS011;18782;48.984;8.548;2024-03-22T11:36:03;3.65;;;2.28;;
32297;SDS011;18782;48.984;8.548;2024-03-22T11:38:30;3.50;;;2.55;;
32297;SDS011;18782;48.984;8.548;2024-03-22T11:40:57;3.22;;;1.80;;
32297;SDS011;18782;48.984;8.548;2024-03-22T11:43:25;3.67;;;1.83;;
32297;SDS011;18782;48.984;8.548;2024-03-22T11:45:54;5.30;;;1.90;;
32297;SDS011;18782;48.984;8.548;2024-03-22T11:48:20;4.28;;;1.88;;
32297;SDS011;18782;48.984;8.548;2024-03-22T11:50:49;3.75;;;1.80;;
32297;SDS011;18782;48.984;8.548;2024-03-22T11:53:15;5.07;;;2.72;;
32297;SDS011;18782;48.984;8.548;2024-03-22T11:55:43;3.42;;;2.25;;
32297;SDS011;18782;48.984;8.548;2024-03-22T11:58:09;3.90;;;1.90;;
32297;SDS011;18782;48.984;8.548;2024-03-22T12:00:36;4.55;;;1.88;;
32297;SDS011;18782;48.984;8.548;2024-03-22T12:03:03;4.88;;;1.77;;
32297;SDS011;18782;48.984;8.548;2024-03-22T12:05:31;3.83;;;2.08;;
32297;SDS011;18782;48.984;8.548;2024-03-22T12:10:45;3.42;;;1.85;;
32297;SDS011;18782;48.984;8.548;2024-03-22T12:13:12;3.53;;;2.03;;
32297;SDS011;18782;48.984;8.548;2024-03-22T12:15:38;3.60;;;1.95;;
32297;SDS011;18782;48.984;8.548;2024-03-22T12:18:04;5.13;;;2.20;;
32297;SDS011;18782;48.984;8.548;2024-03-22T12:20:30;4.15;;;2.33;;
32297;SDS011;18782;48.984;8.548;2024-03-22T12:22:57;5.30;;;2.53;;
32297;SDS011;18782;48.984;8.548;2024-03-22T12:25:23;5.38;;;2.22;;
32297;SDS011;18782;48.984;8.548;2024-03-22T12:27:51;4.50;;;2.70;;
32297;SDS011;18782;48.984;8.548;2024-03-22T12:30:17;3.88;;;2.38;;
32297;SDS011;18782;48.984;8.548;2024-03-22T12:32:43;3.50;;;2.33;;
32297;SDS011;18782;48.984;8.548;2024-03-22T12:35:09;3.78;;;2.33;;
32297;SDS011;18782;48.984;8.548;2024-03-22T12:37:36;2.90;;;1.88;;
32297;SDS011;18782;48.984;8.548;2024-03-22T12:40:02;5.35;;;2.20;;
32297;SDS011;18782;48.984;8.548;2024-03-22T12:42:29;4.68;;;2.20;;
32297;SDS011;18782;48.984;8.548;2024-03-22T12:44:56;3.28;;;1.83;;
32297;SDS011;18782;48.984;8.548;2024-03-22T12:47:23;3.55;;;2.20;;
32297;SDS011;18782;48.984;8.548;2024-03-22T12:49:48;2.90;;;2.00;;
32297;SDS011;18782;48.984;8.548;2024-03-22T12:52:15;3.45;;;1.85;;
32297;SDS011;18782;48.984;8.548;2024-03-22T12:54:41;3.67;;;1.90;;
32297;SDS011;18782;48.984;8.548;2024-03-22T12:57:08;3.75;;;2.00;;
32297;SDS011;18782;48.984;8.548;2024-03-22T12:59:35;4.55;;;2.10;;
32297;SDS011;18782;48.984;8.548;2024-03-22T13:02:03;3.65;;;1.40;;
32297;SDS011;18782;48.984;8.548;2024-03-22T13:04:30;3.67;;;1.80;;
32297;SDS011;18782;48.984;8.548;2024-03-22T13:06:56;8.02;;;3.13;;
32297;SDS011;18782;48.984;8.548;2024-03-22T13:09:22;4.03;;;1.98;;
32297;SDS011;18782;48.984;8.548;2024-03-22T13:11:49;4.38;;;1.73;;
32297;SDS011;18782;48.984;8.548;2024-03-22T13:14:15;3.65;;;1.98;;
32297;SDS011;18782;48.984;8.548;2024-03-22T13:16:41;2.75;;;1.98;;
32297;SDS011;18782;48.984;8.548;2024-03-22T13:19:09;3.15;;;1.70;;
32297;SDS011;18782;48.984;8.548;2024-03-22T13:21:37;2.53;;;1.60;;
32297;SDS011;18782;48.984;8.548;2024-03-22T13:24:03;4.70;;;2.10;;
32297;SDS011;18782;48.984;8.548;2024-03-22T13:26:30;3.08;;;1.70;;
32297;SDS011;18782;48.984;8.548;2024-03-22T13:28:56;2.67;;;1.70;;
32297;SDS011;18782;48.984;8.548;2024-03-22T13:31:23;2.40;;;1.70;;
32297;SDS011;18782;48.984;8.548;2024-03-22T13:33:49;2.60;;;1.80;;
32297;SDS011;18782;48.984;8.548;2024-03-22T13:36:17;4.72;;;2.40;;
32297;SDS011;18782;48.984;8.548;2024-03-22T13:38:43;5.32;;;1.83;;
32297;SDS011;18782;48.984;8.548;2024-03-22T13:41:10;7.70;;;2.53;;
32297;SDS011;18782;48.984;8.548;2024-03-22T13:43:36;4.07;;;1.70;;
32297;SDS011;18782;48.984;8.548;2024-03-22T13:46:05;3.40;;;1.70;;
32297;SDS011;18782;48.984;8.548;2024-03-22T13:48:31;3.95;;;1.90;;
32297;SDS011;18782;48.984;8.548;2024-03-22T13:50:57;3.15;;;2.20;;
32297;SDS011;18782;48.984;8.548;2024-03-22T13:53:25;5.05;;;2.50;;
32297;SDS011;18782;48.984;8.548;2024-03-22T13:55:53;4.20;;;2.10;;
32297;SDS011;18782;48.984;8.548;2024-03-22T13:58:19;5.40;;;1.92;;
32297;SDS011;18782;48.984;8.548;2024-03-22T14:00:47;3.75;;;1.95;;
32297;SDS011;18782;48.984;8.548;2024-03-22T14:03:13;4.78;;;2.20;;
32297;SDS011;18782;48.984;8.548;2024-03-22T14:05:39;3.40;;;1.65;;
32297;SDS011;18782;48.984;8.548;2024-03-22T14:08:05;3.13;;;1.80;;
32297;SDS011;18782;48.984;8.548;2024-03-22T14:10:34;2.40;;;1.80;;
32297;SDS011;18782;48.984;8.548;2024-03-22T14:13:00;3.35;;;1.60;;
32297;SDS011;18782;48.984;8.548;2024-03-22T14:15:27;5.80;;;2.00;;
32297;SDS011;18782;48.984;8.548;2024-03-22T14:17:57;5.15;;;1.77;;
32297;SDS011;18782;48.984;8.548;2024-03-22T14:20:24;5.38;;;2.10;;
32297;SDS011;18782;48.984;8.548;2024-03-22T14:22:50;4.03;;;2.00;;
32297;SDS011;18782;48.984;8.548;2024-03-22T14:25:17;4.18;;;2.10;;
32297;SDS011;18782;48.984;8.548;2024-03-22T14:27:44;5.35;;;2.00;;
32297;SDS011;18782;48.984;8.548;2024-03-22T14:30:12;3.60;;;1.70;;
32297;SDS011;18782;48.984;8.548;2024-03-22T14:32:38;4.32;;;2.30;;
32297;SDS011;18782;48.984;8.548;2024-03-22T14:35:05;3.45;;;2.08;;
32297;SDS011;18782;48.984;8.548;2024-03-22T14:37:32;4.18;;;2.00;;
32297;SDS011;18782;48.984;8.548;2024-03-22T14:39:58;3.92;;;1.88;;
32297;SDS011;18782;48.984;8.548;2024-03-22T14:42:24;6.15;;;2.35;;
32297;SDS011;18782;48.984;8.548;2024-03-22T14:44:52;3.30;;;2.20;;